Sousa, Brazil
Current Conditions -  °F | °C
As of 12:00 AM on Friday 19 Dec 2014 (Local Time) from SBJU Reporting Station
Few Clouds Few Clouds  
Wind Chill: 81°   Ceiling: Unl
Heat Index: 87°   Visibility: 6mi
Dew Point: 77°   Wind: 2mph
Humidity: 89%   Direction: 50°NE
Pressure: 29.94"   Gusts: NA
Location:  6.76°S, 38.23°W
Report Text: SBJU 190300Z 05002KT 9999 FEW020 27/25 Q1014
Loading
Personal Weather Stations






























Interactive Weather Map New forecast layout! Learn more

10-Day Weather Forecast

Advertisements
Track Severe Weather on mobile